Time;durP1;ratioP1;P1;durP2;ratioP2;P2;SDS_P1;SDS_P2;PMS_P1;PMS_P2;Temp;Humidity;BMP_temperature;BMP_pressure;BME280_temperature;BME280_humidity;BME280_pressure;Samples;Min_cycle;Max_cycle;Signal;HPM_P1;HPM_P2
2023/11/14 00:07:05;;;;;;;;;;;11.80;99.90;;;;;;6665614;89;20078;-83
2023/11/14 00:17:06;;;;;;;;;;;11.80;99.90;;;;;;6669145;89;20156;-83
2023/11/14 00:27:06;;;;;;;;;;;11.70;99.90;;;;;;6669078;89;20115;-82
2023/11/14 00:37:07;;;;;;;;;;;11.80;99.90;;;;;;6669468;89;20083;-83
2023/11/14 00:47:07;;;;;;;;;;;11.90;99.90;;;;;;6669853;89;20967;-83
2023/11/14 00:57:08;;;;;;;;;;;12.00;99.90;;;;;;6669437;89;20073;-82
2023/11/14 01:07:10;;;;;;;;;;;11.90;99.90;;;;;;6677587;88;20047;-82
2023/11/14 01:17:10;;;;;;;;;;;11.80;99.90;;;;;;6661501;88;20129;-84
2023/11/14 01:27:11;;;;;;;;;;;11.60;99.90;;;;;;6657952;89;20559;-82
2023/11/14 01:37:11;;;;;;;;;;;11.70;99.90;;;;;;6652015;89;20140;-82
2023/11/14 01:47:12;;;;;;;;;;;11.80;99.90;;;;;;6656565;89;20064;-82
2023/11/14 01:57:14;;;;;;;;;;;11.70;99.90;;;;;;6673375;88;20055;-79
2023/11/14 02:07:15;;;;;;;;;;;11.60;99.90;;;;;;6679818;88;20781;-80
2023/11/14 02:17:16;;;;;;;;;;;11.60;99.90;;;;;;6679738;88;20029;-79
2023/11/14 02:27:18;;;;;;;;;;;11.60;99.90;;;;;;6679735;88;20752;-80
2023/11/14 02:37:18;;;;;;;;;;;11.50;99.90;;;;;;6726094;88;20063;-82
2023/11/14 02:47:19;;;;;;;;;;;11.60;99.90;;;;;;6723767;88;20137;-81
2023/11/14 02:57:19;;;;;;;;;;;11.60;99.90;;;;;;6673929;88;20189;-81
2023/11/14 03:07:20;;;;;;;;;;;11.50;99.90;;;;;;6667778;88;20583;-81
2023/11/14 03:17:20;;;;;;;;;;;11.70;99.90;;;;;;6668364;88;20069;-81
2023/11/14 03:27:21;;;;;;;;;;;11.60;99.90;;;;;;6668149;89;20720;-81
2023/11/14 03:37:22;;;;;;;;;;;11.50;99.90;;;;;;6667506;88;20049;-81
2023/11/14 03:47:22;;;;;;;;;;;11.60;99.90;;;;;;6667870;88;20053;-81
2023/11/14 03:57:23;;;;;;;;;;;11.80;99.90;;;;;;6668745;89;20057;-82
2023/11/14 04:07:23;;;;;;;;;;;12.00;99.90;;;;;;6669248;88;20053;-81
2023/11/14 04:17:24;;;;;;;;;;;11.80;99.90;;;;;;6666241;89;20583;-82
2023/11/14 04:27:24;;;;;;;;;;;11.90;99.90;;;;;;6671179;89;20105;-81
2023/11/14 04:47:28;;;;;;;;;;;12.10;99.90;;;;;;6634170;88;20099;-78
2023/11/14 04:57:28;;;;;;;;;;;12.00;99.90;;;;;;6644561;88;20114;-78
2023/11/14 05:07:30;;;;;;;;;;;12.00;99.90;;;;;;6659169;88;20089;-78
2023/11/14 05:17:30;;;;;;;;;;;12.00;99.90;;;;;;6647780;88;20084;-78
2023/11/14 05:27:31;;;;;;;;;;;11.90;99.90;;;;;;6655902;88;20075;-78
2023/11/14 05:37:31;;;;;;;;;;;11.90;99.90;;;;;;6643023;88;20078;-78
2023/11/14 05:47:32;;;;;;;;;;;11.90;99.90;;;;;;6665993;88;20503;-78
2023/11/14 05:57:32;;;;;;;;;;;11.90;99.90;;;;;;6672712;88;20052;-79
2023/11/14 06:07:33;;;;;;;;;;;11.80;99.90;;;;;;6655630;88;20091;-79
2023/11/14 06:17:33;;;;;;;;;;;11.90;99.90;;;;;;6641215;88;20071;-78
2023/11/14 06:27:34;;;;;;;;;;;11.80;99.90;;;;;;6643582;88;20072;-78
2023/11/14 06:37:34;;;;;;;;;;;12.20;99.90;;;;;;6643300;88;20075;-78
2023/11/14 06:47:35;;;;;;;;;;;12.20;99.90;;;;;;6643966;88;20117;-78
2023/11/14 06:57:35;;;;;;;;;;;12.00;99.90;;;;;;6636097;88;20091;-77
2023/11/14 07:07:38;;;;;;;;;;;12.10;99.90;;;;;;6651097;88;20139;-77
2023/11/14 07:17:39;;;;;;;;;;;12.10;99.90;;;;;;6642997;88;20105;-77
2023/11/14 07:27:41;;;;;;;;;;;12.20;99.90;;;;;;6639039;88;20057;-77
2023/11/14 07:37:41;;;;;;;;;;;12.40;99.90;;;;;;6634080;88;20538;-77
2023/11/14 07:47:42;;;;;;;;;;;12.30;99.90;;;;;;6650539;88;20188;-77
2023/11/14 07:57:42;;;;;;;;;;;12.50;99.90;;;;;;6644701;88;20079;-79
2023/11/14 08:07:43;;;;;;;;;;;12.30;99.90;;;;;;6638003;88;20190;-79
2023/11/14 08:17:43;;;;;;;;;;;12.40;99.90;;;;;;6680888;88;20099;-78
2023/11/14 08:27:44;;;;;;;;;;;12.40;99.90;;;;;;6640868;88;20078;-79
2023/11/14 08:37:44;;;;;;;;;;;12.50;99.90;;;;;;6648287;88;20151;-79
2023/11/14 08:47:45;;;;;;;;;;;12.50;99.90;;;;;;6662212;88;20213;-79
2023/11/14 08:57:45;;;;;;;;;;;12.50;99.90;;;;;;6672866;88;20060;-79
2023/11/14 09:07:47;;;;;;;;;;;12.70;99.90;;;;;;6700223;88;20064;-79
2023/11/14 09:17:48;;;;;;;;;;;12.80;99.90;;;;;;6653503;88;20063;-80
2023/11/14 09:27:49;;;;;;;;;;;12.90;99.90;;;;;;6642012;88;20164;-80
2023/11/14 09:37:50;;;;;;;;;;;12.90;99.90;;;;;;6686415;88;20106;-80
2023/11/14 09:47:50;;;;;;;;;;;13.00;99.90;;;;;;6658886;88;20647;-80
2023/11/14 09:57:51;;;;;;;;;;;13.20;99.90;;;;;;6652488;88;20052;-79
2023/11/14 10:07:51;;;;;;;;;;;13.30;99.90;;;;;;6640418;88;20191;-79
2023/11/14 10:17:52;;;;;;;;;;;13.30;99.90;;;;;;6651918;88;20075;-78
2023/11/14 10:28:05;;;;;;;;;;;13.20;99.90;;;;;;6641129;88;20290;-78
2023/11/14 10:38:35;;;;;;;;;;;13.40;99.90;;;;;;6637150;88;20779;-77
2023/11/14 10:48:36;;;;;;;;;;;13.40;99.90;;;;;;6646476;88;20064;-79
2023/11/14 10:58:36;;;;;;;;;;;13.40;99.90;;;;;;6629804;88;20142;-79
2023/11/14 11:08:37;;;;;;;;;;;13.20;99.90;;;;;;6642884;88;20061;-79
2023/11/14 11:18:38;;;;;;;;;;;12.70;99.90;;;;;;6643072;88;20059;-79
2023/11/14 11:28:42;;;;;;;;;;;12.40;99.90;;;;;;6652235;88;20091;-78
2023/11/14 11:38:51;;;;;;;;;;;12.30;99.90;;;;;;6650961;88;20084;-78
2023/11/14 11:48:52;;;;;;;;;;;12.40;99.90;;;;;;6642318;88;20475;-79
2023/11/14 11:58:57;;;;;;;;;;;13.00;99.90;;;;;;6662572;88;20161;-78
2023/11/14 12:08:57;;;;;;;;;;;13.90;99.90;;;;;;6656777;88;20830;-78
2023/11/14 12:18:57;;;;;;;;;;;13.90;99.90;;;;;;6635703;88;20166;-78
2023/11/14 12:28:58;;;;;;;;;;;13.70;99.90;;;;;;6626133;88;20197;-78
2023/11/14 12:39:11;;;;;;;;;;;13.70;99.90;;;;;;6650845;88;20066;-78
2023/11/14 12:49:14;;;;;;;;;;;14.20;99.90;;;;;;6657722;88;20058;-79
2023/11/14 12:59:15;;;;;;;;;;;14.20;99.90;;;;;;6640329;88;20129;-78
2023/11/14 13:09:16;;;;;;;;;;;14.20;99.90;;;;;;6631545;89;20063;-79
2023/11/14 13:19:17;;;;;;;;;;;13.90;99.90;;;;;;6651911;88;20546;-79
2023/11/14 13:29:17;;;;;;;;;;;13.70;99.90;;;;;;6638395;89;20540;-79
2023/11/14 13:39:19;;;;;;;;;;;13.70;99.90;;;;;;6637379;88;20093;-79
2023/11/14 13:49:19;;;;;;;;;;;13.60;99.90;;;;;;6620465;89;20624;-79
2023/11/14 13:59:20;;;;;;;;;;;13.60;99.90;;;;;;6635354;88;20118;-80
2023/11/14 14:09:20;;;;;;;;;;;13.40;99.90;;;;;;6683464;88;20072;-80
2023/11/14 14:19:21;;;;;;;;;;;13.50;99.90;;;;;;6687542;88;20160;-80
2023/11/14 14:29:21;;;;;;;;;;;13.30;99.90;;;;;;6650650;88;20239;-81
2023/11/14 14:39:23;;;;;;;;;;;13.40;99.90;;;;;;6634958;89;20170;-79
2023/11/14 15:00:13;;;;;;;;;;;13.30;99.90;;;;;;6722205;88;20187;-82
2023/11/14 15:10:16;;;;;;;;;;;13.30;99.90;;;;;;6705003;89;20142;-82
2023/11/14 15:20:17;;;;;;;;;;;13.20;99.90;;;;;;6671840;89;20164;-83
2023/11/14 15:30:17;;;;;;;;;;;13.00;99.90;;;;;;6675359;89;20087;-84
2023/11/14 15:40:18;;;;;;;;;;;12.90;99.90;;;;;;6679116;89;20032;-82
2023/11/14 15:50:18;;;;;;;;;;;12.60;99.90;;;;;;6708186;88;20121;-83
2023/11/14 16:00:20;;;;;;;;;;;12.30;99.90;;;;;;6694309;89;20101;-82
2023/11/14 16:10:20;;;;;;;;;;;12.00;99.90;;;;;;6691894;89;20090;-82
2023/11/14 16:20:21;;;;;;;;;;;11.60;99.90;;;;;;6689565;89;20154;-81
2023/11/14 16:30:21;;;;;;;;;;;11.40;99.90;;;;;;6708783;88;20707;-81
2023/11/14 16:40:22;;;;;;;;;;;11.20;99.90;;;;;;6695678;89;20084;-81
2023/11/14 16:50:22;;;;;;;;;;;10.90;99.90;;;;;;6695488;88;20067;-81
2023/11/14 17:00:23;;;;;;;;;;;11.00;99.90;;;;;;6694006;88;20099;-78
2023/11/14 17:10:23;;;;;;;;;;;10.90;99.90;;;;;;6704685;88;20238;-79
2023/11/14 17:20:24;;;;;;;;;;;10.90;99.90;;;;;;6709943;88;20027;-83
2023/11/14 17:30:29;;;;;;;;;;;10.90;99.90;;;;;;6716785;88;20056;-81
2023/11/14 17:40:29;;;;;;;;;;;10.70;99.90;;;;;;6706332;88;20076;-80
2023/11/14 17:50:30;;;;;;;;;;;10.60;99.90;;;;;;6704212;88;20841;-81
2023/11/14 18:00:31;;;;;;;;;;;10.60;99.90;;;;;;6706551;88;20188;-82
2023/11/14 18:10:32;;;;;;;;;;;10.60;99.90;;;;;;6705163;88;20539;-79
2023/11/14 18:20:34;;;;;;;;;;;10.60;99.90;;;;;;6702572;88;20068;-79
2023/11/14 18:30:37;;;;;;;;;;;10.50;99.90;;;;;;6699774;88;20093;-78
2023/11/14 18:40:37;;;;;;;;;;;10.60;99.90;;;;;;6691839;88;20047;-80
2023/11/14 18:50:38;;;;;;;;;;;10.60;99.90;;;;;;6709753;88;20055;-81
2023/11/14 19:00:38;;;;;;;;;;;10.70;99.90;;;;;;6710858;88;20139;-79
2023/11/14 19:10:38;;;;;;;;;;;10.90;99.90;;;;;;6710720;88;20077;-79
2023/11/14 19:20:41;;;;;;;;;;;11.30;99.90;;;;;;6707936;88;20094;-80
2023/11/14 19:30:41;;;;;;;;;;;11.20;99.90;;;;;;6715235;88;20059;-78
2023/11/14 19:40:42;;;;;;;;;;;11.00;99.90;;;;;;6715663;88;20076;-81
2023/11/14 19:50:46;;;;;;;;;;;10.90;99.90;;;;;;6712969;88;20071;-79
2023/11/14 20:00:46;;;;;;;;;;;10.70;99.90;;;;;;6711553;88;20082;-79
2023/11/14 20:10:47;;;;;;;;;;;10.30;99.90;;;;;;6700542;88;20138;-80
2023/11/14 20:20:47;;;;;;;;;;;9.70;99.90;;;;;;6705746;88;20163;-80
2023/11/14 20:30:48;;;;;;;;;;;9.60;99.90;;;;;;6706930;88;20143;-82
2023/11/14 20:40:48;;;;;;;;;;;9.60;99.90;;;;;;6717369;88;20457;-81
2023/11/14 20:50:54;;;;;;;;;;;9.60;99.90;;;;;;6707307;78;20068;-79
2023/11/14 21:00:54;;;;;;;;;;;9.60;99.90;;;;;;6692981;88;20094;-78
2023/11/14 21:10:54;;;;;;;;;;;9.60;99.90;;;;;;6686515;88;20575;-78
2023/11/14 21:20:55;;;;;;;;;;;9.50;99.90;;;;;;6676230;88;20153;-78
2023/11/14 21:31:06;;;;;;;;;;;9.50;99.90;;;;;;6685636;88;20056;-79
2023/11/14 21:41:07;;;;;;;;;;;9.50;99.90;;;;;;6670788;88;20087;-79
2023/11/14 21:51:07;;;;;;;;;;;9.50;99.90;;;;;;6686565;88;20077;-79
2023/11/14 22:01:08;;;;;;;;;;;9.50;99.90;;;;;;6683952;88;20619;-78
2023/11/14 22:11:08;;;;;;;;;;;9.60;99.90;;;;;;6681963;88;20143;-78
2023/11/14 22:21:09;;;;;;;;;;;9.80;99.90;;;;;;6668730;89;20084;-78
2023/11/14 22:31:11;;;;;;;;;;;9.90;99.90;;;;;;6667471;89;20175;-78
2023/11/14 22:41:13;;;;;;;;;;;10.10;99.90;;;;;;6681633;88;20094;-79
2023/11/14 22:51:13;;;;;;;;;;;10.10;99.90;;;;;;6671372;88;20229;-78
2023/11/14 23:01:14;;;;;;;;;;;10.20;99.90;;;;;;6688223;88;20068;-79
2023/11/14 23:11:14;;;;;;;;;;;10.20;99.90;;;;;;6676886;88;20235;-77
2023/11/14 23:21:15;;;;;;;;;;;10.30;99.90;;;;;;6682021;88;20187;-78
2023/11/14 23:31:15;;;;;;;;;;;10.40;99.90;;;;;;6677332;88;20057;-78
2023/11/14 23:41:16;;;;;;;;;;;10.30;99.90;;;;;;6678333;88;20505;-78
2023/11/14 23:51:17;;;;;;;;;;;10.30;99.90;;;;;;6674902;88;20120;-78
